West Olive, Michigan
Current Conditions -  °F | °C
As of 7:53 AM on Friday 28 Nov 2014 (Local Time) from KBIV Reporting Station
Overcast Overcast  
Wind Chill: 13°   Ceiling: 3000
Heat Index: 22°   Visibility: 10mi
Dew Point: 17°   Wind: 8mph
Humidity: 82%   Direction: 150°SSE
Pressure: 30.28"   Gusts: NA
Location:  42.92°N, 86.15°W
Report Text: KBIV 281253Z AUTO 15007KT 10SM OVC030 M06/M08 A3028 RMK AO2 SNE19 SLP264 P0000 T10561083
Loading
Personal Weather Stations






























Interactive Weather Map New forecast layout! Learn more

10-Day Weather Forecast

Advertisements
Track Severe Weather on mobile